createdAt,value
2023-01-23T00:01:28.451Z,41.90
2023-01-23T00:03:56.174Z,49.10
2023-01-23T00:06:23.812Z,43.40
2023-01-23T00:08:51.471Z,40.47
2023-01-23T00:11:20.512Z,39.97
2023-01-23T00:13:47.954Z,41.20
2023-01-23T00:16:16.276Z,41.67
2023-01-23T00:18:43.610Z,41.03
2023-01-23T00:21:11.899Z,48.85
2023-01-23T00:23:39.410Z,42.45
2023-01-23T00:26:07.603Z,37.35
2023-01-23T00:28:35.173Z,40.38
2023-01-23T00:31:10.223Z,40.13
2023-01-23T00:33:37.374Z,39.10
2023-01-23T00:36:04.668Z,44.33
2023-01-23T00:38:31.914Z,42.30
2023-01-23T00:40:59.042Z,39.58
2023-01-23T00:43:26.460Z,41.47
2023-01-23T00:45:53.569Z,42.83
2023-01-23T00:48:20.716Z,48.85
2023-01-23T00:50:48.570Z,43.50
2023-01-23T00:53:15.904Z,40.67
2023-01-23T00:55:43.299Z,44.30
2023-01-23T00:58:10.465Z,40.10
2023-01-23T01:00:38.206Z,36.45
2023-01-23T01:03:05.492Z,38.20
2023-01-23T01:05:32.859Z,40.72
2023-01-23T01:08:00.134Z,48.03
2023-01-23T01:10:29.569Z,42.67
2023-01-23T01:12:57.400Z,43.53
2023-01-23T01:15:25.058Z,48.45
2023-01-23T01:17:54.242Z,43.88
2023-01-23T01:20:26.090Z,44.97
2023-01-23T01:22:53.844Z,51.38
2023-01-23T01:25:21.020Z,56.30
2023-01-23T01:27:48.568Z,41.83
2023-01-23T01:30:16.701Z,45.53
2023-01-23T01:32:44.285Z,49.03
2023-01-23T01:35:11.927Z,54.28
2023-01-23T01:37:39.908Z,46.72
2023-01-23T01:40:08.430Z,47.38
2023-01-23T01:42:43.175Z,43.60
2023-01-23T01:45:29.115Z,46.03
2023-01-23T01:47:56.261Z,46.28
2023-01-23T01:50:23.403Z,45.78
2023-01-23T01:52:50.811Z,40.03
2023-01-23T01:55:18.151Z,44.78
2023-01-23T01:57:48.897Z,47.88
2023-01-23T02:00:18.628Z,39.75
2023-01-23T02:02:49.526Z,42.35
2023-01-23T02:05:19.536Z,36.13
2023-01-23T02:08:04.733Z,44.80
2023-01-23T02:10:36.295Z,40.22
2023-01-23T02:13:22.295Z,46.75
2023-01-23T02:15:50.079Z,39.47
2023-01-23T02:18:17.330Z,44.25
2023-01-23T02:20:44.698Z,39.20
2023-01-23T02:23:36.745Z,42.40
2023-01-23T02:26:08.505Z,43.60
2023-01-23T02:28:40.151Z,49.42
2023-01-23T02:31:07.919Z,43.33
2023-01-23T02:33:35.109Z,49.33
2023-01-23T02:36:05.358Z,37.72
2023-01-23T02:38:37.607Z,40.10
2023-01-23T02:41:06.464Z,38.40
2023-01-23T02:43:38.864Z,40.90
2023-01-23T02:46:07.188Z,44.38
2023-01-23T02:48:34.567Z,38.53
2023-01-23T02:51:01.711Z,38.08
2023-01-23T02:53:29.477Z,33.92
2023-01-23T02:55:58.798Z,31.85
2023-01-23T02:58:45.131Z,31.98
2023-01-23T03:01:12.452Z,35.28
2023-01-23T03:03:42.295Z,32.92
2023-01-23T03:06:09.593Z,29.33
2023-01-23T03:08:47.259Z,31.98
2023-01-23T03:11:15.429Z,41.35
2023-01-23T03:13:42.643Z,32.75
2023-01-23T03:16:10.100Z,37.42
2023-01-23T03:18:52.942Z,34.63
2023-01-23T03:21:21.411Z,34.40
2023-01-23T03:23:48.526Z,32.28
2023-01-23T03:26:16.080Z,39.80
2023-01-23T03:29:01.773Z,33.72
2023-01-23T03:31:29.110Z,37.00
2023-01-23T03:33:56.371Z,31.27
2023-01-23T03:36:23.556Z,33.75
2023-01-23T03:39:09.239Z,35.35
2023-01-23T03:41:38.264Z,28.45
2023-01-23T03:44:05.531Z,33.25
2023-01-23T03:46:32.704Z,32.45
2023-01-23T03:48:59.874Z,30.42
2023-01-23T03:51:27.089Z,33.83
2023-01-23T03:53:54.254Z,35.25
2023-01-23T03:56:21.353Z,32.28
2023-01-23T03:58:48.481Z,34.72
2023-01-23T04:01:15.731Z,31.05
2023-01-23T04:03:42.891Z,32.85
2023-01-23T04:06:10.755Z,32.53
2023-01-23T04:08:37.952Z,33.55
2023-01-23T04:11:05.585Z,35.58
2023-01-23T04:13:32.904Z,28.67
2023-01-23T04:16:00.565Z,31.80
2023-01-23T04:18:28.302Z,32.42
2023-01-23T04:20:56.059Z,30.20
2023-01-23T04:23:23.692Z,34.03
2023-01-23T04:25:51.456Z,35.78
2023-01-23T04:28:19.038Z,34.78
2023-01-23T04:30:46.522Z,31.15
2023-01-23T04:33:13.937Z,33.65
2023-01-23T04:35:41.120Z,35.20
2023-01-23T04:38:08.265Z,34.30
2023-01-23T04:40:35.407Z,37.80
2023-01-23T04:43:02.617Z,31.45
2023-01-23T04:45:29.762Z,30.30
2023-01-23T04:47:56.929Z,32.42
2023-01-23T04:50:24.082Z,31.90
2023-01-23T04:52:51.284Z,31.17
2023-01-23T04:55:18.537Z,25.67
2023-01-23T04:57:45.703Z,29.92
2023-01-23T05:00:13.866Z,33.75
2023-01-23T05:02:41.220Z,31.92
2023-01-23T05:05:08.592Z,28.63
2023-01-23T05:07:35.807Z,30.23
2023-01-23T05:10:02.948Z,28.98
2023-01-23T05:12:30.172Z,33.17
2023-01-23T05:14:57.311Z,32.15
2023-01-23T05:17:24.651Z,28.80
2023-01-23T05:19:51.876Z,32.17
2023-01-23T05:22:19.005Z,38.08
2023-01-23T05:24:46.223Z,37.78
2023-01-23T05:27:13.441Z,39.47
2023-01-23T05:29:40.605Z,35.50
2023-01-23T05:32:07.833Z,36.65
2023-01-23T05:34:34.976Z,46.53
2023-01-23T05:37:02.150Z,35.22
2023-01-23T05:39:32.009Z,31.40
2023-01-23T05:41:59.205Z,43.05
2023-01-23T05:44:26.410Z,36.33
2023-01-23T05:46:53.721Z,45.22
2023-01-23T05:49:20.940Z,38.08
2023-01-23T05:51:48.141Z,38.13
2023-01-23T05:54:15.342Z,37.72
2023-01-23T05:56:42.437Z,45.88
2023-01-23T05:59:10.075Z,56.65
2023-01-23T06:01:37.168Z,51.17
2023-01-23T06:04:04.361Z,42.50
2023-01-23T06:06:31.498Z,42.08
2023-01-23T06:09:00.238Z,44.25
2023-01-23T06:11:27.352Z,45.53
2023-01-23T06:13:54.488Z,43.22
2023-01-23T06:16:21.721Z,44.72
2023-01-23T06:18:48.909Z,37.53
2023-01-23T06:21:18.241Z,38.63
2023-01-23T06:23:45.965Z,45.80
2023-01-23T06:26:13.382Z,45.03
2023-01-23T06:28:41.146Z,40.78
2023-01-23T06:31:10.354Z,38.35
2023-01-23T06:33:38.998Z,40.67
2023-01-23T06:36:06.745Z,46.92
2023-01-23T06:38:34.313Z,42.83
2023-01-23T06:41:01.774Z,49.05
2023-01-23T06:43:29.007Z,41.85
2023-01-23T06:45:56.306Z,51.33
2023-01-23T06:48:23.764Z,42.58
2023-01-23T06:50:50.995Z,40.60
2023-01-23T06:53:18.707Z,40.92
2023-01-23T06:55:46.007Z,47.30
2023-01-23T06:58:13.235Z,48.13
2023-01-23T07:00:40.661Z,51.90
2023-01-23T07:03:07.858Z,50.70
2023-01-23T07:05:39.469Z,46.55
2023-01-23T07:08:07.087Z,49.90
2023-01-23T07:10:34.251Z,50.40
2023-01-23T07:13:01.382Z,49.13
2023-01-23T07:15:28.517Z,43.35
2023-01-23T07:17:55.668Z,40.97
2023-01-23T07:20:23.187Z,52.53
2023-01-23T07:22:51.089Z,46.05
2023-01-23T07:25:18.292Z,40.75
2023-01-23T07:27:45.423Z,46.47
2023-01-23T07:30:12.776Z,47.03
2023-01-23T07:32:39.945Z,52.03
2023-01-23T07:35:07.452Z,55.42
2023-01-23T07:37:35.116Z,52.80
2023-01-23T07:40:02.234Z,62.72
2023-01-23T07:42:29.356Z,50.17
2023-01-23T07:44:56.537Z,53.05
2023-01-23T07:47:23.635Z,75.55
2023-01-23T07:49:50.857Z,73.03
2023-01-23T07:52:17.992Z,72.43
2023-01-23T07:54:45.120Z,88.00
2023-01-23T07:57:12.238Z,88.82
2023-01-23T07:59:39.287Z,88.30
2023-01-23T08:02:06.619Z,90.30
2023-01-23T08:04:51.971Z,62.60
2023-01-23T10:41:20.606Z,794.90
2023-01-23T10:43:58.552Z,791.95
2023-01-23T10:46:46.813Z,930.28
2023-01-23T10:49:44.498Z,791.70
2023-01-23T10:52:33.127Z,933.67
2023-01-23T10:58:25.331Z,933.47
2023-01-23T11:03:39.809Z,932.95
2023-01-23T11:06:08.814Z,805.42
2023-01-23T11:08:37.212Z,938.40
2023-01-23T11:11:16.954Z,804.03
2023-01-23T11:13:48.143Z,803.20
2023-01-23T11:16:16.706Z,940.78
2023-01-23T11:18:50.469Z,935.58
2023-01-23T11:21:42.702Z,803.88
2023-01-23T11:27:24.010Z,805.63
2023-01-23T11:30:21.115Z,928.92
2023-01-23T11:33:09.399Z,803.90
2023-01-23T11:35:58.884Z,801.10
2023-01-23T11:38:37.671Z,922.50
2023-01-23T11:50:26.750Z,802.55
2023-01-23T11:56:18.548Z,934.85
2023-01-23T11:58:50.315Z,813.50
2023-01-23T12:01:47.166Z,930.72
2023-01-23T12:04:57.777Z,927.28
2023-01-23T12:54:37.614Z,926.95
2023-01-23T13:00:02.313Z,814.60
2023-01-23T13:02:48.750Z,939.60
2023-01-23T13:05:28.172Z,794.67
2023-01-23T13:11:43.597Z,921.60
2023-01-23T13:15:06.972Z,931.03
2023-01-23T13:17:39.879Z,926.13
2023-01-23T13:27:45.179Z,920.13
2023-01-23T13:30:35.163Z,921.38
2023-01-23T13:33:20.257Z,932.03
2023-01-23T13:35:55.409Z,927.78
2023-01-23T13:38:33.429Z,801.05
2023-01-23T13:41:54.478Z,799.15
2023-01-23T14:23:19.119Z,930.33
2023-01-23T14:25:52.766Z,938.25
2023-01-23T14:28:20.778Z,789.15
2023-01-23T14:31:06.465Z,779.78
2023-01-23T14:33:41.347Z,787.28
2023-01-23T14:36:16.394Z,922.60
2023-01-23T14:38:44.749Z,921.67
2023-01-23T14:41:14.332Z,929.67
2023-01-23T14:43:42.679Z,794.03
2023-01-23T14:46:20.681Z,927.05
2023-01-23T14:48:55.196Z,786.65
2023-01-23T14:51:26.533Z,786.72
2023-01-23T14:53:56.760Z,778.65
2023-01-23T14:56:29.351Z,915.40
2023-01-23T14:58:58.652Z,789.00
2023-01-23T15:01:29.761Z,784.10
2023-01-23T15:03:58.556Z,924.78
2023-01-23T15:06:26.215Z,794.28
2023-01-23T15:08:53.664Z,786.90
2023-01-23T15:11:39.273Z,918.45
2023-01-23T15:14:10.553Z,919.15
2023-01-23T15:16:38.754Z,779.88
2023-01-23T15:19:09.641Z,791.75
2023-01-23T15:21:39.244Z,783.63
2023-01-23T15:24:10.545Z,779.03
2023-01-23T15:26:39.580Z,777.17
2023-01-23T15:29:10.860Z,781.13
2023-01-23T15:31:47.540Z,905.08
2023-01-23T15:34:15.012Z,776.35
2023-01-23T15:36:51.600Z,925.95
2023-01-23T15:39:23.928Z,780.10
2023-01-23T15:41:55.290Z,925.50
2023-01-23T15:44:23.451Z,783.25
2023-01-23T15:46:54.097Z,785.13
2023-01-23T15:49:26.261Z,940.03
2023-01-23T15:51:56.790Z,791.75
2023-01-23T15:57:30.096Z,782.08
2023-01-23T16:00:27.333Z,786.00
2023-01-23T16:03:02.465Z,783.72
2023-01-23T16:05:30.919Z,785.80
2023-01-23T16:08:01.308Z,918.53
2023-01-23T16:10:29.803Z,921.47
2023-01-23T16:12:57.891Z,920.17
2023-01-23T16:15:26.884Z,775.70
2023-01-23T16:17:57.349Z,782.92
2023-01-23T16:20:27.470Z,782.50
2023-01-23T16:23:14.559Z,915.67
2023-01-23T16:25:45.372Z,924.92
2023-01-23T16:28:19.563Z,779.70
2023-01-23T16:30:47.877Z,786.28
2023-01-23T16:33:15.920Z,781.40
2023-01-23T16:35:43.479Z,915.55
2023-01-23T16:38:20.100Z,915.60
2023-01-23T16:40:47.439Z,781.63
2023-01-23T16:43:14.790Z,924.80
2023-01-23T16:45:42.185Z,783.33
2023-01-23T16:48:18.204Z,779.92
2023-01-23T16:50:51.424Z,776.58
2023-01-23T16:53:32.872Z,771.08
2023-01-23T16:56:01.091Z,911.95
2023-01-23T16:58:46.613Z,915.65
2023-01-23T17:01:20.622Z,914.85
2023-01-23T17:04:05.527Z,784.00
2023-01-23T17:06:35.439Z,915.58
2023-01-23T17:09:02.658Z,779.83
2023-01-23T17:11:43.954Z,774.25
2023-01-23T17:14:16.845Z,770.50
2023-01-23T17:16:45.214Z,912.55
2023-01-23T17:19:27.658Z,911.80
2023-01-23T17:25:13.579Z,777.38
2023-01-23T17:27:45.373Z,765.45
2023-01-23T17:30:17.999Z,773.75
2023-01-23T17:32:47.353Z,915.83
2023-01-23T17:35:20.013Z,926.22
2023-01-23T17:37:47.513Z,792.83
2023-01-23T17:40:16.196Z,923.88
2023-01-23T17:42:44.052Z,911.75
2023-01-23T17:45:15.345Z,781.97
2023-01-23T17:47:48.119Z,789.03
2023-01-23T17:50:20.153Z,927.60
2023-01-23T17:52:48.299Z,789.90
2023-01-23T17:55:18.455Z,784.35
2023-01-23T17:57:45.921Z,782.90
2023-01-23T18:00:16.089Z,784.40
2023-01-23T18:02:44.114Z,929.55
2023-01-23T18:05:14.134Z,934.08
2023-01-23T18:07:53.126Z,923.63
2023-01-23T18:10:22.190Z,785.50
2023-01-23T18:12:59.917Z,921.55
2023-01-23T18:15:47.874Z,925.22
2023-01-23T18:18:24.177Z,776.00
2023-01-23T18:20:55.002Z,781.67
2023-01-23T18:23:28.351Z,777.63
2023-01-23T18:26:04.955Z,919.22
2023-01-23T18:28:37.180Z,772.55
2023-01-23T18:31:07.504Z,780.88
2023-01-23T18:33:41.116Z,916.85
2023-01-23T18:36:08.480Z,922.35
2023-01-23T18:38:54.684Z,773.70
2023-01-23T18:41:26.141Z,911.05
2023-01-23T18:43:56.425Z,761.33
2023-01-23T18:46:24.255Z,767.30
2023-01-23T18:48:51.779Z,908.42
2023-01-23T18:51:22.144Z,915.72
2023-01-23T18:53:55.534Z,764.60
2023-01-23T18:56:22.757Z,916.50
2023-01-23T18:59:11.773Z,916.40
2023-01-23T19:01:44.595Z,766.88
2023-01-23T19:04:14.775Z,904.13
2023-01-23T19:06:42.575Z,914.90
2023-01-23T19:09:20.218Z,901.75
2023-01-23T19:11:57.589Z,773.42
2023-01-23T19:14:43.647Z,914.35
2023-01-23T19:17:22.951Z,762.28
2023-01-23T19:19:59.621Z,921.88
2023-01-23T19:22:30.470Z,913.72
2023-01-23T19:24:57.903Z,909.90
2023-01-23T19:27:25.195Z,922.10
2023-01-23T19:29:52.523Z,770.45
2023-01-23T19:32:19.919Z,767.17
2023-01-23T19:34:47.244Z,918.67
2023-01-23T19:37:14.807Z,767.55
2023-01-23T19:39:42.248Z,768.65
2023-01-23T19:42:13.828Z,765.17
2023-01-23T19:44:41.104Z,906.85
2023-01-23T19:47:08.708Z,923.45
2023-01-23T19:49:35.919Z,773.08
2023-01-23T19:52:03.600Z,773.30
2023-01-23T19:54:30.862Z,908.15
2023-01-23T19:56:58.083Z,910.42
2023-01-23T19:59:26.511Z,906.22
2023-01-23T20:01:54.337Z,920.70
2023-01-23T20:04:22.767Z,916.72
2023-01-23T20:06:52.010Z,918.22
2023-01-23T20:09:19.767Z,913.45
2023-01-23T20:11:47.303Z,778.17
2023-01-23T20:14:14.682Z,924.13
2023-01-23T20:16:43.562Z,907.97
2023-01-23T20:19:13.869Z,780.83
2023-01-23T20:21:41.316Z,787.03
2023-01-23T20:24:08.818Z,784.58
2023-01-23T20:26:36.210Z,922.03
2023-01-23T20:29:04.108Z,782.53
2023-01-23T20:31:31.899Z,776.28
2023-01-23T20:33:59.594Z,782.08
2023-01-23T20:36:26.834Z,918.15
2023-01-23T20:38:54.093Z,920.63
2023-01-23T20:41:21.681Z,906.70
2023-01-23T20:43:49.414Z,783.03
2023-01-23T20:46:19.189Z,784.03
2023-01-23T20:48:46.939Z,775.85
2023-01-23T20:51:15.413Z,779.45
2023-01-23T20:53:43.056Z,779.72
2023-01-23T20:56:11.380Z,775.25
2023-01-23T20:59:09.393Z,779.83
2023-01-23T21:01:56.323Z,774.25
2023-01-23T21:04:25.033Z,915.25
2023-01-23T21:06:52.352Z,789.55
2023-01-23T21:09:19.672Z,909.05
2023-01-23T21:11:49.221Z,923.13
2023-01-23T21:14:16.455Z,776.22
2023-01-23T21:16:44.199Z,917.72
2023-01-23T21:19:11.403Z,923.28
2023-01-23T21:21:38.703Z,781.83
2023-01-23T21:24:06.240Z,782.90
2023-01-23T21:26:33.865Z,782.13
2023-01-23T21:29:01.479Z,786.17
2023-01-23T21:31:30.399Z,923.00
2023-01-23T21:34:00.151Z,779.42
2023-01-23T21:36:27.513Z,916.47
2023-01-23T21:38:54.852Z,782.90
2023-01-23T21:41:22.434Z,789.65
2023-01-23T21:43:49.705Z,925.80
2023-01-23T21:46:17.163Z,931.75
2023-01-23T21:48:44.406Z,786.60
2023-01-23T21:51:12.964Z,789.45
2023-01-23T21:53:41.290Z,925.15
2023-01-23T21:56:09.076Z,777.30
2023-01-23T21:58:36.448Z,920.88
2023-01-23T22:01:26.889Z,783.50
2023-01-23T22:03:54.163Z,782.45
2023-01-23T22:06:21.375Z,927.35
2023-01-23T22:08:48.736Z,778.88
2023-01-23T22:11:15.982Z,916.55
2023-01-23T22:13:43.457Z,783.08
2023-01-23T22:16:12.002Z,921.70
2023-01-23T22:18:39.432Z,925.10
2023-01-23T22:21:09.253Z,789.03
2023-01-23T22:23:36.507Z,784.67
2023-01-23T22:26:07.685Z,934.63
2023-01-23T22:28:35.386Z,789.08
2023-01-23T22:31:07.341Z,786.08
2023-01-23T22:33:40.469Z,931.00
2023-01-23T22:36:09.675Z,788.15
2023-01-23T22:38:36.947Z,926.40
2023-01-23T22:41:05.208Z,918.22
2023-01-23T22:43:33.091Z,936.00
2023-01-23T22:46:09.577Z,790.35
2023-01-23T22:48:36.923Z,784.30
2023-01-23T22:51:04.906Z,922.85
2023-01-23T22:53:32.575Z,791.75
2023-01-23T22:55:59.834Z,918.60
2023-01-23T22:58:27.192Z,935.47
2023-01-23T23:00:54.721Z,934.38
2023-01-23T23:03:22.738Z,791.10
2023-01-23T23:05:57.203Z,785.83
2023-01-23T23:08:24.438Z,787.85
2023-01-23T23:11:07.626Z,783.80
2023-01-23T23:13:35.933Z,906.50
2023-01-23T23:16:07.074Z,913.10
2023-01-23T23:18:35.112Z,925.45
2023-01-23T23:21:05.165Z,915.65
2023-01-23T23:23:32.550Z,920.25
2023-01-23T23:25:59.914Z,788.42
2023-01-23T23:28:28.010Z,913.85
2023-01-23T23:30:55.433Z,783.25
2023-01-23T23:33:23.027Z,778.25
2023-01-23T23:35:50.270Z,778.67
2023-01-23T23:38:17.901Z,925.70
2023-01-23T23:40:45.276Z,913.95
2023-01-23T23:43:12.711Z,922.65
2023-01-23T23:45:46.630Z,775.33
2023-01-23T23:48:13.974Z,923.78
2023-01-23T23:50:43.297Z,915.50
2023-01-23T23:53:10.543Z,916.20
2023-01-23T23:55:37.895Z,780.50
2023-01-23T23:58:05.229Z,781.85
